createdAt,value
2023-05-30T00:01:08.403Z,5.87
2023-05-30T00:03:41.854Z,6.53
2023-05-30T00:06:17.257Z,7.07
2023-05-30T00:08:50.640Z,6.60
2023-05-30T00:11:25.428Z,6.43
2023-05-30T00:13:59.410Z,6.27
2023-05-30T00:16:33.900Z,6.87
2023-05-30T00:19:09.066Z,5.77
2023-05-30T00:21:43.360Z,6.50
2023-05-30T00:24:17.165Z,6.37
2023-05-30T00:26:50.776Z,6.37
2023-05-30T00:29:24.254Z,6.37
2023-05-30T00:31:58.958Z,5.90
2023-05-30T00:34:32.266Z,6.20
2023-05-30T00:37:07.198Z,6.17
2023-05-30T00:39:41.360Z,6.17
2023-05-30T00:42:14.420Z,6.30
2023-05-30T00:44:48.830Z,6.57
2023-05-30T00:47:23.181Z,6.90
2023-05-30T00:49:59.173Z,6.50
2023-05-30T00:52:33.479Z,6.00
2023-05-30T00:55:09.750Z,7.37
2023-05-30T00:57:44.592Z,6.63
2023-05-30T01:00:22.517Z,6.30
2023-05-30T01:03:01.615Z,6.47
2023-05-30T01:05:36.673Z,6.97
2023-05-30T01:08:12.319Z,6.87
2023-05-30T01:10:46.865Z,6.93
2023-05-30T01:13:30.171Z,7.13
2023-05-30T01:16:16.148Z,6.73
2023-05-30T01:18:56.829Z,6.27
2023-05-30T01:21:34.483Z,7.30
2023-05-30T01:24:22.040Z,7.40
2023-05-30T01:27:13.014Z,6.70
2023-05-30T01:29:47.493Z,7.40
2023-05-30T01:32:21.772Z,6.93
2023-05-30T01:34:59.057Z,6.60
2023-05-30T01:37:32.539Z,6.67
2023-05-30T01:40:11.163Z,7.07
2023-05-30T01:42:46.883Z,6.90
2023-05-30T01:45:26.332Z,7.20
2023-05-30T01:48:06.703Z,7.25
2023-05-30T01:50:44.759Z,7.30
2023-05-30T01:53:24.634Z,7.13
2023-05-30T01:56:03.630Z,6.90
2023-05-30T01:58:39.335Z,7.60
2023-05-30T02:01:13.965Z,7.20
2023-05-30T02:03:49.690Z,7.00
2023-05-30T02:06:24.647Z,7.00
2023-05-30T02:08:58.780Z,6.73
2023-05-30T02:11:33.012Z,7.20
2023-05-30T02:14:08.554Z,6.83
2023-05-30T02:16:42.715Z,6.67
2023-05-30T02:19:22.606Z,7.07
2023-05-30T02:21:57.093Z,6.77
2023-05-30T02:24:32.935Z,7.50
2023-05-30T02:27:07.144Z,6.87
2023-05-30T02:29:41.216Z,6.93
2023-05-30T02:32:15.138Z,6.93
2023-05-30T02:34:49.533Z,7.23
2023-05-30T02:37:23.235Z,7.10
2023-05-30T02:39:57.346Z,7.10
2023-05-30T02:42:31.761Z,6.20
2023-05-30T02:45:08.309Z,6.93
2023-05-30T02:47:42.854Z,7.17
2023-05-30T02:50:17.353Z,6.75
2023-05-30T02:52:50.684Z,7.00
2023-05-30T02:55:25.068Z,6.63
2023-05-30T02:58:17.638Z,6.87
2023-05-30T03:01:02.621Z,7.10
2023-05-30T03:03:36.855Z,6.90
2023-05-30T03:06:17.730Z,6.40
2023-05-30T03:09:08.996Z,6.17
2023-05-30T03:11:42.488Z,7.27
2023-05-30T03:14:16.456Z,6.90
2023-05-30T03:16:51.657Z,6.50
2023-05-30T03:19:25.330Z,7.27
2023-05-30T03:22:01.643Z,7.00
2023-05-30T03:24:35.603Z,6.20
2023-05-30T03:27:11.114Z,7.10
2023-05-30T03:29:45.169Z,6.67
2023-05-30T03:32:19.636Z,6.77
2023-05-30T03:34:54.290Z,6.37
2023-05-30T03:37:29.732Z,6.00
2023-05-30T03:40:06.142Z,7.17
2023-05-30T03:42:42.274Z,7.07
2023-05-30T03:45:19.146Z,6.27
2023-05-30T03:47:53.648Z,6.70
2023-05-30T03:50:27.406Z,6.67
2023-05-30T03:53:01.209Z,6.43
2023-05-30T03:55:35.093Z,6.27
2023-05-30T03:58:09.842Z,6.13
2023-05-30T04:00:43.573Z,7.10
2023-05-30T04:03:20.913Z,6.70
2023-05-30T04:05:54.592Z,6.00
2023-05-30T04:08:29.036Z,6.63
2023-05-30T04:11:04.106Z,6.63
2023-05-30T04:13:40.934Z,6.40
2023-05-30T04:16:14.791Z,6.03
2023-05-30T04:18:49.197Z,6.33
2023-05-30T04:21:23.600Z,5.93
2023-05-30T04:23:57.460Z,5.40
2023-05-30T04:26:32.754Z,6.30
2023-05-30T04:29:09.562Z,5.33
2023-05-30T04:31:45.448Z,6.90
2023-05-30T04:34:20.467Z,6.50
2023-05-30T04:36:54.793Z,5.43
2023-05-30T04:39:29.143Z,5.87
2023-05-30T04:42:06.412Z,5.73
2023-05-30T04:44:40.948Z,5.60
2023-05-30T04:47:15.601Z,6.10
2023-05-30T04:49:49.775Z,6.17
2023-05-30T04:52:24.563Z,5.60
2023-05-30T04:54:58.533Z,5.63
2023-05-30T04:57:31.940Z,5.93
2023-05-30T05:00:10.977Z,5.57
2023-05-30T05:02:45.758Z,5.10
2023-05-30T05:05:19.883Z,5.63
2023-05-30T05:07:53.442Z,6.10
2023-05-30T05:10:27.172Z,5.50
2023-05-30T05:13:00.660Z,5.60
2023-05-30T05:15:34.092Z,5.53
2023-05-30T05:18:08.881Z,5.37
2023-05-30T05:20:43.098Z,5.50
2023-05-30T05:23:17.105Z,5.00
2023-05-30T05:25:51.314Z,5.17
2023-05-30T05:28:25.244Z,5.80
2023-05-30T05:31:00.007Z,4.53
2023-05-30T05:33:33.831Z,4.73
2023-05-30T05:36:09.116Z,5.27
2023-05-30T05:38:42.504Z,5.17
2023-05-30T05:41:15.825Z,4.80
2023-05-30T05:43:50.121Z,4.60
2023-05-30T05:46:23.887Z,5.17
2023-05-30T05:48:57.727Z,5.13
2023-05-30T05:51:33.216Z,4.80
2023-05-30T05:54:07.257Z,5.27
2023-05-30T05:56:40.705Z,5.60
2023-05-30T05:59:16.481Z,5.07
2023-05-30T06:01:50.243Z,5.00
2023-05-30T06:04:24.379Z,4.73
2023-05-30T06:06:58.630Z,4.57
2023-05-30T06:09:34.759Z,5.03
2023-05-30T06:12:08.692Z,4.90
2023-05-30T06:14:42.198Z,5.07
2023-05-30T06:17:16.621Z,4.80
2023-05-30T06:19:51.782Z,4.87
2023-05-30T06:22:25.908Z,5.10
2023-05-30T06:24:59.736Z,4.67
2023-05-30T06:27:32.868Z,4.67
2023-05-30T06:30:08.956Z,4.30
2023-05-30T06:32:42.591Z,5.67
2023-05-30T06:35:16.860Z,4.90
2023-05-30T06:37:50.679Z,4.80
2023-05-30T06:40:24.635Z,4.30
2023-05-30T06:42:58.206Z,4.97
2023-05-30T06:45:31.693Z,4.23
2023-05-30T06:48:04.959Z,4.05
2023-05-30T06:50:39.273Z,4.80
2023-05-30T06:53:13.080Z,4.50
2023-05-30T06:55:48.434Z,3.87
2023-05-30T06:58:21.884Z,4.10
2023-05-30T07:00:56.246Z,4.10
2023-05-30T07:03:30.685Z,4.00
2023-05-30T07:06:03.892Z,4.35
2023-05-30T07:08:38.405Z,4.63
2023-05-30T07:11:11.977Z,3.80
2023-05-30T07:13:45.995Z,4.13
2023-05-30T07:16:20.258Z,3.57
2023-05-30T07:19:04.377Z,4.33
2023-05-30T07:21:45.333Z,3.90
2023-05-30T07:24:18.810Z,3.77
2023-05-30T07:26:52.636Z,3.30
2023-05-30T07:29:26.419Z,3.73
2023-05-30T07:32:00.304Z,3.40
2023-05-30T07:34:34.588Z,3.77
2023-05-30T07:37:08.930Z,3.50
2023-05-30T07:39:42.462Z,3.80
2023-05-30T07:42:15.412Z,3.20
2023-05-30T07:44:49.866Z,3.70
2023-05-30T07:47:23.818Z,3.97
2023-05-30T07:49:58.085Z,3.87
2023-05-30T07:52:31.893Z,3.73
2023-05-30T07:55:06.035Z,4.03
2023-05-30T07:57:39.368Z,3.33
2023-05-30T08:00:16.488Z,3.40
2023-05-30T08:02:51.322Z,3.93
2023-05-30T08:05:26.173Z,3.70
2023-05-30T08:08:00.234Z,3.70
2023-05-30T08:10:33.655Z,3.43
2023-05-30T08:13:06.979Z,3.60
2023-05-30T08:15:40.887Z,3.33
2023-05-30T08:18:14.735Z,3.57
2023-05-30T08:20:48.642Z,3.93
2023-05-30T08:23:23.118Z,3.30
2023-05-30T08:25:57.317Z,3.60
2023-05-30T08:28:30.770Z,4.27
2023-05-30T08:31:04.730Z,3.63
2023-05-30T08:33:39.748Z,4.00
2023-05-30T08:36:13.635Z,3.80
2023-05-30T08:39:13.151Z,3.30
2023-05-30T08:41:48.894Z,4.20
2023-05-30T08:44:22.712Z,3.77
2023-05-30T08:46:56.615Z,3.30
2023-05-30T08:49:35.339Z,3.57
2023-05-30T08:52:13.612Z,3.27
2023-05-30T08:55:00.229Z,3.70
2023-05-30T08:57:44.558Z,3.80
2023-05-30T09:00:23.192Z,3.77
2023-05-30T09:02:59.626Z,3.13
2023-05-30T09:05:35.063Z,3.77
2023-05-30T09:08:11.315Z,3.60
2023-05-30T09:10:49.618Z,3.80
2023-05-30T09:13:25.055Z,3.40
2023-05-30T09:15:58.619Z,3.40
2023-05-30T09:18:34.481Z,3.30
2023-05-30T09:21:09.636Z,3.87
2023-05-30T09:23:45.278Z,3.33
2023-05-30T09:26:20.624Z,3.33
2023-05-30T09:28:54.105Z,3.43
2023-05-30T09:31:29.735Z,3.20
2023-05-30T09:34:06.964Z,3.47
2023-05-30T09:36:41.788Z,3.50
2023-05-30T09:39:16.148Z,3.57
2023-05-30T09:41:50.088Z,4.03
2023-05-30T09:44:24.284Z,3.37
2023-05-30T09:47:01.597Z,3.80
2023-05-30T09:49:38.015Z,3.20
2023-05-30T09:52:12.808Z,3.80
2023-05-30T09:54:46.814Z,3.37
2023-05-30T09:57:19.830Z,3.30
2023-05-30T09:59:54.718Z,3.40
2023-05-30T10:02:28.820Z,3.40
2023-05-30T10:05:03.470Z,3.00
2023-05-30T10:07:37.232Z,4.00
2023-05-30T10:10:12.936Z,3.33
2023-05-30T10:12:46.206Z,3.30
2023-05-30T10:15:21.039Z,2.80
2023-05-30T10:18:04.419Z,3.70
2023-05-30T10:20:45.435Z,3.60
2023-05-30T10:23:21.661Z,2.90
2023-05-30T10:25:57.177Z,3.23
2023-05-30T10:28:32.965Z,3.07
2023-05-30T10:31:08.113Z,3.67
2023-05-30T10:33:56.427Z,3.10
2023-05-30T10:36:32.134Z,3.17
2023-05-30T10:39:25.393Z,2.90
2023-05-30T10:42:04.521Z,3.60
2023-05-30T10:44:57.295Z,2.63
2023-05-30T10:47:46.594Z,2.83
2023-05-30T10:50:27.544Z,2.80
2023-05-30T10:53:02.166Z,3.30
2023-05-30T10:55:37.016Z,3.17
2023-05-30T10:58:39.991Z,2.93
2023-05-30T11:01:29.927Z,2.90
2023-05-30T11:04:06.908Z,3.33
2023-05-30T11:06:44.139Z,3.07
2023-05-30T11:09:20.180Z,3.13
2023-05-30T11:11:59.136Z,3.50
2023-05-30T11:14:34.849Z,3.23
2023-05-30T11:17:10.268Z,3.30
2023-05-30T11:19:46.233Z,3.10
2023-05-30T11:22:23.870Z,3.25
2023-05-30T11:25:23.807Z,3.30
2023-05-30T11:28:17.430Z,3.23
2023-05-30T11:30:52.181Z,3.20
2023-05-30T11:33:28.982Z,3.30
2023-05-30T11:36:02.589Z,3.70
2023-05-30T11:38:36.717Z,3.90
2023-05-30T11:41:16.518Z,3.17
2023-05-30T11:43:52.711Z,3.33
2023-05-30T11:46:27.273Z,3.30
2023-05-30T11:49:05.769Z,3.30
2023-05-30T11:51:42.752Z,3.00
2023-05-30T11:54:16.276Z,3.03
2023-05-30T11:56:53.627Z,3.03
2023-05-30T11:59:28.849Z,3.17
2023-05-30T12:02:03.498Z,3.83
2023-05-30T12:04:39.341Z,3.27
2023-05-30T12:07:14.562Z,3.10
2023-05-30T12:09:48.498Z,3.13
2023-05-30T12:12:21.724Z,3.13
2023-05-30T12:15:11.202Z,2.83
2023-05-30T12:17:47.259Z,2.83
2023-05-30T12:20:22.718Z,3.37
2023-05-30T12:22:57.072Z,3.37
2023-05-30T12:25:30.963Z,3.20
2023-05-30T12:28:04.599Z,3.27
2023-05-30T12:30:41.850Z,3.47
2023-05-30T12:33:19.946Z,3.20
2023-05-30T12:35:57.210Z,3.10
2023-05-30T12:38:31.079Z,3.20
2023-05-30T12:41:05.002Z,3.57
2023-05-30T12:43:40.877Z,3.07
2023-05-30T12:46:15.961Z,3.20
2023-05-30T12:48:49.885Z,3.27
2023-05-30T12:51:23.802Z,3.15
2023-05-30T12:53:57.604Z,3.20
2023-05-30T12:56:32.416Z,3.50
2023-05-30T12:59:07.590Z,3.30
2023-05-30T13:01:41.708Z,3.40
2023-05-30T13:04:15.749Z,3.20
2023-05-30T13:06:50.197Z,2.90
2023-05-30T13:09:23.999Z,3.17
2023-05-30T13:11:57.779Z,3.43
2023-05-30T13:14:33.364Z,3.00
2023-05-30T13:17:07.758Z,3.13
2023-05-30T13:19:42.502Z,3.17
2023-05-30T13:22:17.706Z,3.00
2023-05-30T13:24:52.089Z,3.33
2023-05-30T13:27:25.200Z,3.27
2023-05-30T13:29:58.915Z,3.10
2023-05-30T13:32:32.926Z,3.70
2023-05-30T13:35:07.611Z,3.57
2023-05-30T13:37:41.442Z,3.30
2023-05-30T13:40:18.138Z,3.47
2023-05-30T13:42:51.391Z,3.20
2023-05-30T13:45:26.519Z,3.20
2023-05-30T13:48:00.232Z,2.93
2023-05-30T13:50:34.627Z,3.47
2023-05-30T13:53:08.577Z,3.70
2023-05-30T13:55:42.433Z,3.60
2023-05-30T13:58:16.079Z,3.47
2023-05-30T14:00:50.484Z,3.57
2023-05-30T14:03:25.041Z,3.73
2023-05-30T14:05:59.090Z,4.07
2023-05-30T14:08:33.309Z,3.50
2023-05-30T14:11:08.188Z,3.57
2023-05-30T14:13:43.716Z,3.37
2023-05-30T14:16:17.687Z,3.70
2023-05-30T14:18:52.417Z,4.03
2023-05-30T14:21:26.219Z,3.90
2023-05-30T14:24:00.044Z,3.60
2023-05-30T14:26:34.704Z,3.87
2023-05-30T14:29:09.834Z,4.10
2023-05-30T14:31:43.770Z,3.93
2023-05-30T14:34:18.113Z,3.93
2023-05-30T14:36:52.121Z,3.97
2023-05-30T14:39:25.454Z,4.07
2023-05-30T14:41:59.183Z,3.87
2023-05-30T14:44:33.583Z,3.77
2023-05-30T14:47:09.216Z,4.17
2023-05-30T14:49:43.615Z,3.93
2023-05-30T14:52:17.413Z,3.63
2023-05-30T14:54:51.224Z,4.50
2023-05-30T14:57:25.430Z,3.93
2023-05-30T14:59:59.367Z,4.07
2023-05-30T15:02:33.757Z,4.20
2023-05-30T15:05:10.936Z,4.13
2023-05-30T15:07:45.041Z,3.87
2023-05-30T15:10:19.229Z,3.90
2023-05-30T15:12:52.430Z,3.90
2023-05-30T15:15:26.201Z,4.40
2023-05-30T15:18:00.204Z,4.73
2023-05-30T15:20:35.394Z,4.60
2023-05-30T15:23:09.419Z,4.57
2023-05-30T15:25:43.316Z,4.33
2023-05-30T15:28:16.926Z,4.10
2023-05-30T15:30:50.422Z,4.20
2023-05-30T15:33:24.689Z,4.60
2023-05-30T15:35:58.417Z,4.30
2023-05-30T15:38:32.048Z,4.13
2023-05-30T15:41:06.308Z,4.27
2023-05-30T15:43:40.938Z,4.43
2023-05-30T15:46:19.061Z,4.37
2023-05-30T15:48:53.228Z,4.37
2023-05-30T15:51:27.197Z,4.10
2023-05-30T15:54:01.498Z,4.20
2023-05-30T15:56:35.705Z,4.60
2023-05-30T15:59:09.659Z,4.17
2023-05-30T16:01:43.570Z,4.50
2023-05-30T16:04:17.962Z,4.37
2023-05-30T16:06:53.826Z,4.00
2023-05-30T16:09:27.540Z,4.33
2023-05-30T16:12:01.410Z,4.40
2023-05-30T16:14:35.709Z,3.93
2023-05-30T16:17:10.579Z,4.07
2023-05-30T16:19:44.865Z,4.23
2023-05-30T16:22:18.700Z,4.20
2023-05-30T16:24:54.528Z,4.50
2023-05-30T16:27:27.860Z,4.70
2023-05-30T16:30:01.466Z,4.50
2023-05-30T16:32:35.504Z,4.30
2023-05-30T16:35:11.937Z,4.70
2023-05-30T16:37:45.949Z,4.73
2023-05-30T16:40:19.379Z,5.63
2023-05-30T16:42:53.299Z,4.90
2023-05-30T16:45:27.515Z,5.30
2023-05-30T16:48:01.310Z,5.03
2023-05-30T16:50:35.258Z,5.13
2023-05-30T16:53:09.451Z,4.40
2023-05-30T16:55:43.322Z,5.00
2023-05-30T16:58:17.944Z,4.90
2023-05-30T17:00:52.934Z,4.87
2023-05-30T17:03:27.089Z,5.87
2023-05-30T17:06:00.671Z,5.73
2023-05-30T17:08:34.413Z,6.50
2023-05-30T17:11:08.484Z,6.40
2023-05-30T17:13:43.004Z,6.50
2023-05-30T17:16:17.804Z,8.33
2023-05-30T17:18:51.824Z,7.90
2023-05-30T17:21:25.863Z,6.57
2023-05-30T17:24:00.171Z,7.90
2023-05-30T17:26:33.848Z,7.63
2023-05-30T17:29:09.604Z,7.87
2023-05-30T17:31:43.651Z,7.67
2023-05-30T17:34:18.466Z,7.27
2023-05-30T17:36:52.471Z,7.87
2023-05-30T17:39:26.554Z,7.60
2023-05-30T17:42:00.741Z,6.73
2023-05-30T17:44:34.503Z,6.80
2023-05-30T17:47:10.054Z,7.10
2023-05-30T17:49:44.927Z,6.77
2023-05-30T17:52:18.173Z,6.90
2023-05-30T17:54:51.793Z,7.10
2023-05-30T17:57:25.581Z,7.67
2023-05-30T18:00:00.257Z,6.43
2023-05-30T18:02:34.538Z,7.07
2023-05-30T18:05:10.261Z,6.43
2023-05-30T18:07:44.206Z,6.10
2023-05-30T18:10:19.029Z,7.20
2023-05-30T18:12:53.325Z,6.93
2023-05-30T18:15:27.372Z,7.00
2023-05-30T18:18:01.317Z,6.87
2023-05-30T18:20:35.191Z,6.67
2023-05-30T18:23:09.772Z,6.70
2023-05-30T18:25:44.124Z,6.30
2023-05-30T18:28:17.376Z,7.00
2023-05-30T18:30:50.989Z,7.00
2023-05-30T18:33:25.094Z,5.53
2023-05-30T18:36:12.361Z,5.53
2023-05-30T18:38:48.432Z,5.93
2023-05-30T18:41:22.496Z,7.10
2023-05-30T18:43:56.475Z,7.30
2023-05-30T18:46:30.601Z,7.30
2023-05-30T18:49:05.051Z,7.27
2023-05-30T18:51:38.360Z,7.60
2023-05-30T18:54:11.708Z,7.07
2023-05-30T18:56:46.029Z,7.27
2023-05-30T18:59:19.705Z,7.73
2023-05-30T19:01:53.782Z,7.47
2023-05-30T19:04:27.716Z,7.17
2023-05-30T19:07:01.658Z,6.97
2023-05-30T19:09:36.494Z,6.60
2023-05-30T19:12:12.315Z,6.70
2023-05-30T19:14:46.164Z,6.70
2023-05-30T19:17:20.765Z,6.67
2023-05-30T19:19:55.140Z,6.07
2023-05-30T19:22:29.196Z,5.97
2023-05-30T19:25:04.284Z,5.87
2023-05-30T19:27:37.465Z,5.53
2023-05-30T19:30:12.481Z,5.60
2023-05-30T19:32:46.134Z,6.57
2023-05-30T19:35:20.105Z,6.50
2023-05-30T19:37:55.603Z,5.57
2023-05-30T19:40:31.829Z,5.70
2023-05-30T19:43:05.619Z,6.27
2023-05-30T19:45:42.939Z,6.50
2023-05-30T19:48:17.511Z,6.53
2023-05-30T19:50:51.407Z,6.43
2023-05-30T19:53:25.513Z,6.30
2023-05-30T19:56:00.600Z,7.20
2023-05-30T19:58:34.093Z,6.60
2023-05-30T20:01:09.170Z,6.67
2023-05-30T20:03:43.102Z,7.10
2023-05-30T20:06:16.299Z,7.07
2023-05-30T20:08:50.317Z,7.47
2023-05-30T20:11:24.395Z,7.33
2023-05-30T20:13:58.614Z,7.63
2023-05-30T20:16:32.747Z,6.50
2023-05-30T20:19:06.427Z,6.57
2023-05-30T20:21:41.793Z,6.43
2023-05-30T20:24:16.246Z,6.23
2023-05-30T20:26:50.777Z,5.70
2023-05-30T20:29:25.806Z,6.50
2023-05-30T20:31:59.953Z,7.20
2023-05-30T20:34:33.697Z,7.40
2023-05-30T20:37:08.758Z,7.87
2023-05-30T20:39:43.017Z,7.47
2023-05-30T20:42:18.763Z,7.97
2023-05-30T20:44:52.289Z,8.10
2023-05-30T20:47:26.859Z,7.40
2023-05-30T20:50:03.194Z,8.37
2023-05-30T20:52:36.730Z,8.17
2023-05-30T20:55:12.805Z,7.90
2023-05-30T20:57:46.152Z,7.83
2023-05-30T21:00:22.849Z,8.77
2023-05-30T21:02:56.911Z,6.70
2023-05-30T21:05:31.100Z,7.50
2023-05-30T21:08:05.148Z,6.90
2023-05-30T21:10:40.791Z,6.90
2023-05-30T21:13:14.959Z,6.90
2023-05-30T21:15:49.107Z,7.07
2023-05-30T21:18:22.596Z,7.00
2023-05-30T21:20:56.967Z,7.10
2023-05-30T21:23:30.698Z,6.47
2023-05-30T21:26:04.536Z,6.80
2023-05-30T21:28:37.721Z,6.60
2023-05-30T21:31:11.813Z,7.80
2023-05-30T21:33:45.910Z,6.60
2023-05-30T21:36:20.375Z,6.67
2023-05-30T21:38:54.240Z,6.73
2023-05-30T21:41:27.684Z,7.07
2023-05-30T21:44:02.311Z,7.10
2023-05-30T21:46:37.758Z,6.60
2023-05-30T21:49:12.038Z,6.93
2023-05-30T21:51:45.375Z,6.17
2023-05-30T21:54:38.138Z,7.00
2023-05-30T21:57:13.695Z,9.37
2023-05-30T21:59:47.614Z,9.43
2023-05-30T22:02:21.215Z,10.83
2023-05-30T22:04:55.230Z,12.70
2023-05-30T22:07:30.289Z,13.43
2023-05-30T22:10:04.369Z,14.07
2023-05-30T22:12:38.754Z,11.40
2023-05-30T22:15:14.571Z,11.60
2023-05-30T22:17:48.815Z,9.63
2023-05-30T22:20:22.577Z,8.43
2023-05-30T22:22:56.086Z,7.40
2023-05-30T22:25:30.384Z,7.07
2023-05-30T22:28:03.224Z,6.93
2023-05-30T22:30:37.759Z,6.63
2023-05-30T22:33:11.354Z,6.93
2023-05-30T22:35:47.233Z,6.03
2023-05-30T22:38:21.256Z,6.20
2023-05-30T22:40:55.363Z,6.53
2023-05-30T22:43:28.622Z,6.40
2023-05-30T22:46:03.638Z,6.47
2023-05-30T22:48:37.484Z,7.20
2023-05-30T22:51:11.289Z,6.77
2023-05-30T22:53:45.182Z,6.23
2023-05-30T22:56:19.844Z,6.37
2023-05-30T22:58:54.550Z,7.10
2023-05-30T23:01:29.267Z,6.37
2023-05-30T23:04:03.871Z,5.93
2023-05-30T23:06:37.410Z,6.20
2023-05-30T23:09:11.559Z,5.73
2023-05-30T23:11:46.933Z,6.23
2023-05-30T23:14:21.075Z,6.67
2023-05-30T23:16:56.311Z,6.23
2023-05-30T23:19:30.256Z,6.63
2023-05-30T23:22:04.336Z,6.77
2023-05-30T23:24:38.619Z,6.60
2023-05-30T23:27:12.361Z,6.60
2023-05-30T23:29:46.413Z,6.47
2023-05-30T23:32:20.411Z,6.40
2023-05-30T23:34:54.408Z,6.80
2023-05-30T23:37:28.114Z,6.97
2023-05-30T23:40:01.573Z,7.10
2023-05-30T23:42:35.787Z,6.07
2023-05-30T23:45:12.032Z,6.87
2023-05-30T23:47:46.311Z,6.50
2023-05-30T23:50:20.073Z,7.00
2023-05-30T23:52:54.280Z,6.90
2023-05-30T23:55:28.194Z,6.97
2023-05-30T23:58:01.082Z,8.00
